createdAt,value
2022-09-26T00:02:28.901Z,8.23
2022-09-26T00:04:56.454Z,7.10
2022-09-26T00:07:23.726Z,6.28
2022-09-26T00:09:51.165Z,6.03
2022-09-26T00:12:20.455Z,6.45
2022-09-26T00:14:47.679Z,6.78
2022-09-26T00:17:14.984Z,7.55
2022-09-26T00:19:42.619Z,7.15
2022-09-26T00:22:09.734Z,6.50
2022-09-26T00:24:37.109Z,6.75
2022-09-26T00:27:04.782Z,6.40
2022-09-26T00:29:33.418Z,5.88
2022-09-26T00:32:00.930Z,6.32
2022-09-26T00:34:28.486Z,6.68
2022-09-26T00:36:55.651Z,8.77
2022-09-26T00:39:26.179Z,6.57
2022-09-26T00:41:53.835Z,10.95
2022-09-26T00:44:46.442Z,7.25
2022-09-26T00:47:41.114Z,9.40
2022-09-26T00:50:14.182Z,7.90
2022-09-26T00:52:46.680Z,9.85
2022-09-26T00:55:18.145Z,13.65
2022-09-26T00:57:51.406Z,8.95
2022-09-26T01:00:20.847Z,7.50
2022-09-26T01:02:48.975Z,8.40
2022-09-26T01:05:19.006Z,7.53
2022-09-26T01:07:47.000Z,6.47
2022-09-26T01:10:14.670Z,6.32
2022-09-26T01:12:42.743Z,6.43
2022-09-26T01:15:11.040Z,6.70
2022-09-26T01:17:43.129Z,6.05
2022-09-26T01:20:33.467Z,6.00
2022-09-26T01:23:43.762Z,5.57
2022-09-26T01:26:56.223Z,8.07
2022-09-26T01:29:54.926Z,6.88
2022-09-26T01:32:33.923Z,5.97
2022-09-26T01:35:09.412Z,5.65
2022-09-26T01:37:46.349Z,7.50
2022-09-26T01:40:21.739Z,5.93
2022-09-26T01:43:00.037Z,5.57
2022-09-26T01:48:05.603Z,5.30
2022-09-26T01:50:38.307Z,5.68
2022-09-26T01:53:10.367Z,5.10
2022-09-26T01:55:41.084Z,5.38
2022-09-26T01:58:14.209Z,5.75
2022-09-26T02:00:44.486Z,5.60
2022-09-26T02:03:17.424Z,8.10
2022-09-26T02:05:49.972Z,7.35
2022-09-26T02:08:23.030Z,9.80
2022-09-26T02:10:55.815Z,10.20
2022-09-26T02:16:02.718Z,15.25
2022-09-26T02:18:35.956Z,8.40
2022-09-26T02:21:09.483Z,11.98
2022-09-26T02:23:36.719Z,8.95
2022-09-26T02:26:03.956Z,7.38
2022-09-26T02:28:31.655Z,7.75
2022-09-26T02:30:59.797Z,7.25
2022-09-26T02:33:28.054Z,10.65
2022-09-26T02:35:57.194Z,7.60
2022-09-26T02:38:29.081Z,8.40
2022-09-26T02:41:01.559Z,9.73
2022-09-26T02:43:43.154Z,8.20
2022-09-26T02:46:33.756Z,9.00
2022-09-26T02:49:17.134Z,8.00
2022-09-26T02:52:06.928Z,6.90
2022-09-26T02:54:43.587Z,7.15
2022-09-26T02:57:21.303Z,6.95
2022-09-26T02:59:57.174Z,9.23
2022-09-26T03:02:31.709Z,8.10
2022-09-26T03:05:03.378Z,8.18
2022-09-26T03:07:37.806Z,6.00
2022-09-26T03:10:09.092Z,7.05
2022-09-26T03:12:38.416Z,7.15
2022-09-26T03:15:07.631Z,6.55
2022-09-26T03:17:38.099Z,7.35
2022-09-26T03:20:09.777Z,6.97
2022-09-26T03:22:39.040Z,7.68
2022-09-26T03:25:09.330Z,6.60
2022-09-26T03:27:39.130Z,6.40
2022-09-26T03:30:07.299Z,6.43
2022-09-26T03:32:34.985Z,6.68
2022-09-26T03:35:02.323Z,6.32
2022-09-26T03:37:29.715Z,6.88
2022-09-26T03:39:58.693Z,5.68
2022-09-26T03:42:25.905Z,7.13
2022-09-26T03:44:53.185Z,5.72
2022-09-26T03:47:20.767Z,8.48
2022-09-26T03:49:48.196Z,8.65
2022-09-26T03:52:15.493Z,9.05
2022-09-26T03:54:43.142Z,9.60
2022-09-26T03:57:13.609Z,7.35
2022-09-26T03:59:40.926Z,8.02
2022-09-26T04:02:09.200Z,6.90
2022-09-26T04:04:36.557Z,7.10
2022-09-26T04:07:04.546Z,6.15
2022-09-26T04:09:32.409Z,6.28
2022-09-26T04:11:59.773Z,5.65
2022-09-26T04:14:28.457Z,6.05
2022-09-26T04:16:56.252Z,6.88
2022-09-26T04:19:23.691Z,6.63
2022-09-26T04:21:51.130Z,7.20
2022-09-26T04:24:18.807Z,8.18
2022-09-26T04:26:46.197Z,7.22
2022-09-26T04:29:14.282Z,7.93
2022-09-26T04:31:43.842Z,8.27
2022-09-26T04:34:11.813Z,7.70
2022-09-26T04:36:39.236Z,6.18
2022-09-26T04:39:07.021Z,6.38
2022-09-26T04:41:34.453Z,6.43
2022-09-26T04:44:01.991Z,6.63
2022-09-26T04:46:31.146Z,6.55
2022-09-26T04:49:01.088Z,7.10
2022-09-26T04:51:30.375Z,7.38
2022-09-26T04:53:58.649Z,7.00
2022-09-26T04:56:27.677Z,8.45
2022-09-26T04:58:56.637Z,10.48
2022-09-26T05:01:24.790Z,11.00
2022-09-26T05:03:52.192Z,10.48
2022-09-26T05:06:20.978Z,8.43
2022-09-26T05:08:48.893Z,8.90
2022-09-26T05:11:17.973Z,10.85
2022-09-26T05:13:50.071Z,10.82
2022-09-26T05:16:20.437Z,11.02
2022-09-26T05:18:49.950Z,12.48
2022-09-26T05:21:17.214Z,12.07
2022-09-26T05:23:45.921Z,12.70
2022-09-26T05:26:19.728Z,12.93
2022-09-26T05:28:48.791Z,12.80
2022-09-26T05:31:17.085Z,11.35
2022-09-26T05:33:44.518Z,12.15
2022-09-26T05:36:12.933Z,11.75
2022-09-26T05:38:40.188Z,12.00
2022-09-26T05:41:08.727Z,13.43
2022-09-26T05:43:36.326Z,13.43
2022-09-26T05:46:05.277Z,12.18
2022-09-26T05:48:33.902Z,14.73
2022-09-26T05:51:06.338Z,12.57
2022-09-26T05:53:33.755Z,13.23
2022-09-26T05:56:01.474Z,12.07
2022-09-26T05:58:31.468Z,12.32
2022-09-26T06:01:04.492Z,12.15
2022-09-26T06:03:32.201Z,11.63
2022-09-26T06:06:01.907Z,12.23
2022-09-26T06:08:29.441Z,12.90
2022-09-26T06:10:59.850Z,11.43
2022-09-26T06:13:27.092Z,10.95
2022-09-26T06:15:55.920Z,11.77
2022-09-26T06:18:23.600Z,11.15
2022-09-26T06:20:51.001Z,10.60
2022-09-26T06:23:18.607Z,11.07
2022-09-26T06:25:46.199Z,11.18
2022-09-26T06:28:14.217Z,12.35
2022-09-26T06:30:41.423Z,11.55
2022-09-26T06:33:10.458Z,11.35
2022-09-26T06:35:37.895Z,11.52
2022-09-26T06:38:05.018Z,12.70
2022-09-26T06:40:33.257Z,13.77
2022-09-26T06:43:00.894Z,12.80
2022-09-26T06:45:28.374Z,14.07
2022-09-26T06:48:00.337Z,14.57
2022-09-26T06:50:28.974Z,13.80
2022-09-26T06:52:56.526Z,14.63
2022-09-26T06:55:23.830Z,15.27
2022-09-26T06:57:51.778Z,14.35
2022-09-26T07:00:19.187Z,13.05
2022-09-26T07:02:50.395Z,13.38
2022-09-26T07:05:18.231Z,12.95
2022-09-26T07:07:47.107Z,13.25
2022-09-26T07:10:17.078Z,13.18
2022-09-26T07:12:45.101Z,13.75
2022-09-26T07:15:13.411Z,12.73
2022-09-26T07:17:42.154Z,13.13
2022-09-26T07:20:11.169Z,13.07
2022-09-26T07:22:38.457Z,11.93
2022-09-26T07:25:08.507Z,12.98
2022-09-26T07:27:35.808Z,12.82
2022-09-26T07:30:04.900Z,11.95
2022-09-26T07:32:32.428Z,12.45
2022-09-26T07:34:59.773Z,12.68
2022-09-26T07:37:27.927Z,13.05
2022-09-26T07:39:59.352Z,12.73
2022-09-26T07:42:30.805Z,11.32
2022-09-26T07:47:45.571Z,12.48
2022-09-26T07:50:12.827Z,12.43
2022-09-26T07:52:40.439Z,13.30
2022-09-26T07:55:09.580Z,12.57
2022-09-26T07:57:38.314Z,12.48
2022-09-26T08:00:07.703Z,11.75
2022-09-26T08:02:36.098Z,12.35
2022-09-26T08:05:04.765Z,12.02
2022-09-26T08:07:34.056Z,11.98
2022-09-26T08:10:01.687Z,10.63
2022-09-26T08:12:34.359Z,11.90
2022-09-26T08:15:04.189Z,12.43
2022-09-26T08:17:32.519Z,13.27
2022-09-26T08:20:00.123Z,12.50
2022-09-26T08:22:27.764Z,12.25
2022-09-26T08:24:55.987Z,13.00
2022-09-26T08:27:23.556Z,14.00
2022-09-26T08:29:50.853Z,13.43
2022-09-26T08:32:21.118Z,12.55
2022-09-26T08:34:48.509Z,13.15
2022-09-26T08:37:15.758Z,13.85
2022-09-26T08:39:43.312Z,13.00
2022-09-26T08:42:26.111Z,12.90
2022-09-26T08:45:23.673Z,12.50
2022-09-26T08:48:00.856Z,13.38
2022-09-26T08:50:37.871Z,12.68
2022-09-26T08:53:10.083Z,12.77
2022-09-26T08:55:43.194Z,11.50
2022-09-26T08:58:18.794Z,11.88
2022-09-26T09:00:51.030Z,11.77
2022-09-26T09:03:28.341Z,11.38
2022-09-26T09:06:02.009Z,12.05
2022-09-26T09:08:36.204Z,11.40
2022-09-26T09:11:13.716Z,11.27
2022-09-26T09:13:57.252Z,11.32
2022-09-26T09:16:37.241Z,12.27
2022-09-26T09:19:18.948Z,12.43
2022-09-26T09:22:02.389Z,12.00
2022-09-26T09:24:49.009Z,12.40
2022-09-26T09:30:19.695Z,12.02
2022-09-26T09:32:52.753Z,12.00
2022-09-26T09:35:29.704Z,12.77
2022-09-26T09:37:58.148Z,13.07
2022-09-26T09:40:29.505Z,11.82
2022-09-26T09:43:03.013Z,11.80
2022-09-26T09:45:43.506Z,11.38
2022-09-26T09:48:12.288Z,11.48
2022-09-26T09:50:50.805Z,11.35
2022-09-26T09:53:35.923Z,11.02
2022-09-26T09:56:13.494Z,11.48
2022-09-26T09:58:59.300Z,10.90
2022-09-26T10:01:31.985Z,10.93
2022-09-26T10:04:05.440Z,11.90
2022-09-26T10:06:46.553Z,10.90
2022-09-26T10:09:36.052Z,11.13
2022-09-26T10:12:13.871Z,11.15
2022-09-26T10:14:46.132Z,10.75
2022-09-26T10:17:15.951Z,11.23
2022-09-26T10:19:43.227Z,10.98
2022-09-26T10:22:17.526Z,10.43
2022-09-26T10:24:47.677Z,8.13
2022-09-26T10:27:17.974Z,8.68
2022-09-26T10:29:46.642Z,7.82
2022-09-26T10:32:17.847Z,7.90
2022-09-26T10:35:04.140Z,6.80
2022-09-26T10:37:36.883Z,5.50
2022-09-26T10:40:22.853Z,5.82
2022-09-26T10:42:50.459Z,5.03
2022-09-26T10:45:20.226Z,4.60
2022-09-26T10:47:50.636Z,4.53
2022-09-26T10:50:21.732Z,3.67
2022-09-26T10:52:55.912Z,3.83
2022-09-26T10:55:29.488Z,3.75
2022-09-26T10:58:00.156Z,4.35
2022-09-26T11:00:37.540Z,3.90
2022-09-26T11:03:07.461Z,3.53
2022-09-26T11:05:36.304Z,4.40
2022-09-26T11:08:06.811Z,3.85
2022-09-26T11:10:35.208Z,3.47
2022-09-26T11:13:14.895Z,3.60
2022-09-26T11:15:52.669Z,3.30
2022-09-26T11:18:26.924Z,3.70
2022-09-26T11:21:03.887Z,3.03
2022-09-26T11:23:41.525Z,3.17
2022-09-26T11:26:14.521Z,3.22
2022-09-26T11:28:47.211Z,3.33
2022-09-26T11:31:28.784Z,2.83
2022-09-26T11:33:59.563Z,2.30
2022-09-26T11:36:49.267Z,2.70
2022-09-26T11:39:32.458Z,2.72
2022-09-26T11:42:12.234Z,2.83
2022-09-26T11:44:55.670Z,2.60
2022-09-26T11:48:00.126Z,2.47
2022-09-26T11:50:37.762Z,2.88
2022-09-26T11:53:19.991Z,3.05
2022-09-26T11:56:04.106Z,2.38
2022-09-26T11:58:41.554Z,2.38
2022-09-26T12:01:20.190Z,2.72
2022-09-26T12:04:09.414Z,2.70
2022-09-26T12:06:46.616Z,2.50
2022-09-26T12:09:33.504Z,2.08
2022-09-26T12:12:13.100Z,2.33
2022-09-26T12:14:52.938Z,2.63
2022-09-26T12:17:28.219Z,2.30
2022-09-26T12:20:03.139Z,2.72
2022-09-26T12:22:37.734Z,2.53
2022-09-26T12:25:26.540Z,2.38
2022-09-26T12:28:07.751Z,2.92
2022-09-26T12:30:40.274Z,3.28
2022-09-26T12:33:41.666Z,2.95
2022-09-26T12:36:20.050Z,3.08
2022-09-26T12:39:04.423Z,2.70
2022-09-26T12:42:05.197Z,2.97
2022-09-26T12:44:53.559Z,3.20
2022-09-26T12:47:58.185Z,2.92
2022-09-26T12:50:39.774Z,2.70
2022-09-26T12:53:37.044Z,3.30
2022-09-26T12:56:08.695Z,2.88
2022-09-26T12:58:52.551Z,3.00
2022-09-26T13:01:40.954Z,2.80
2022-09-26T13:04:37.449Z,2.95
2022-09-26T13:07:21.007Z,3.38
2022-09-26T13:10:11.491Z,3.28
2022-09-26T13:12:58.542Z,2.95
2022-09-26T13:15:30.048Z,3.10
2022-09-26T13:18:03.252Z,3.30
2022-09-26T13:20:37.342Z,3.33
2022-09-26T13:27:16.255Z,2.90
2022-09-26T13:29:49.133Z,2.92
2022-09-26T13:32:20.952Z,2.72
2022-09-26T13:34:57.168Z,2.83
2022-09-26T13:37:38.836Z,2.78
2022-09-26T13:40:21.817Z,2.80
2022-09-26T13:42:58.306Z,2.75
2022-09-26T13:45:37.949Z,2.60
2022-09-26T13:48:10.601Z,2.55
2022-09-26T13:50:45.282Z,2.38
2022-09-26T13:53:21.917Z,2.10
2022-09-26T13:56:23.249Z,1.80
2022-09-26T13:59:03.422Z,2.35
2022-09-26T14:01:31.209Z,2.10
2022-09-26T14:04:17.338Z,1.40
2022-09-26T14:07:13.041Z,2.40
2022-09-26T14:09:52.619Z,1.92
2022-09-26T14:12:33.048Z,2.38
2022-09-26T14:15:22.166Z,3.25
2022-09-26T14:18:12.425Z,3.05
2022-09-26T14:21:05.071Z,3.88
2022-09-26T14:23:43.292Z,3.90
2022-09-26T14:26:19.162Z,3.40
2022-09-26T14:28:51.266Z,3.03
2022-09-26T14:31:40.293Z,2.63
2022-09-26T14:34:20.211Z,2.75
2022-09-26T14:36:48.608Z,2.72
2022-09-26T14:39:30.258Z,2.72
2022-09-26T14:41:58.310Z,2.97
2022-09-26T14:44:32.592Z,2.60
2022-09-26T14:47:06.872Z,2.80
2022-09-26T14:49:34.896Z,2.28
2022-09-26T14:52:03.784Z,2.97
2022-09-26T14:54:39.133Z,2.58
2022-09-26T14:57:20.904Z,3.30
2022-09-26T14:59:48.836Z,3.30
2022-09-26T15:02:30.112Z,3.17
2022-09-26T15:05:32.836Z,4.13
2022-09-26T15:08:01.918Z,3.78
2022-09-26T15:10:39.307Z,2.90
2022-09-26T15:13:27.025Z,2.88
2022-09-26T15:16:10.691Z,2.63
2022-09-26T15:18:40.899Z,3.00
2022-09-26T15:21:19.987Z,3.80
2022-09-26T15:23:50.327Z,2.72
2022-09-26T15:26:23.533Z,2.50
2022-09-26T15:28:53.142Z,3.00
2022-09-26T15:31:26.344Z,2.88
2022-09-26T15:34:00.712Z,3.13
2022-09-26T15:36:30.281Z,3.22
2022-09-26T15:38:58.493Z,3.38
2022-09-26T15:41:27.218Z,3.13
2022-09-26T15:44:00.936Z,4.18
2022-09-26T15:46:28.643Z,3.53
2022-09-26T15:48:55.977Z,3.30
2022-09-26T15:51:27.777Z,2.75
2022-09-26T15:53:59.020Z,2.88
2022-09-26T15:56:32.897Z,2.90
2022-09-26T15:59:06.953Z,2.97
2022-09-26T16:01:41.040Z,2.90
2022-09-26T16:04:19.132Z,2.53
2022-09-26T16:06:55.750Z,2.05
2022-09-26T16:09:29.557Z,2.70
2022-09-26T16:12:00.725Z,3.17
2022-09-26T16:14:35.586Z,3.25
2022-09-26T16:17:18.099Z,3.17
2022-09-26T16:19:47.766Z,2.70
2022-09-26T16:22:30.218Z,2.47
2022-09-26T16:25:17.480Z,2.75
2022-09-26T16:27:47.752Z,2.83
2022-09-26T16:30:42.321Z,3.13
2022-09-26T16:33:28.331Z,1.98
2022-09-26T16:36:02.134Z,2.90
2022-09-26T16:38:32.608Z,2.92
2022-09-26T16:41:04.554Z,2.88
2022-09-26T16:43:34.769Z,2.10
2022-09-26T16:46:06.083Z,3.25
2022-09-26T16:48:40.065Z,3.40
2022-09-26T16:51:18.077Z,3.40
2022-09-26T16:53:47.565Z,3.50
2022-09-26T16:56:17.585Z,3.50
2022-09-26T16:58:50.129Z,3.40
2022-09-26T17:03:45.194Z,3.58
2022-09-26T17:06:13.002Z,3.75
2022-09-26T17:08:40.621Z,2.50
2022-09-26T17:11:15.200Z,2.10
2022-09-26T17:13:43.180Z,2.35
2022-09-26T17:16:13.081Z,2.20
2022-09-26T17:18:40.690Z,2.15
2022-09-26T17:21:09.240Z,3.50
2022-09-26T17:23:42.038Z,4.97
2022-09-26T17:26:18.178Z,5.03
2022-09-26T17:28:45.982Z,4.40
2022-09-26T17:31:17.849Z,2.13
2022-09-26T17:33:47.411Z,2.85
2022-09-26T17:36:20.185Z,3.22
2022-09-26T17:38:47.785Z,4.90
2022-09-26T17:41:16.187Z,5.78
2022-09-26T17:43:43.950Z,6.47
2022-09-26T17:46:15.394Z,4.20
2022-09-26T17:51:12.739Z,3.40
2022-09-26T17:53:46.222Z,2.80
2022-09-26T17:56:17.305Z,4.40
2022-09-26T17:58:45.363Z,5.00
2022-09-26T18:01:21.678Z,5.45
2022-09-26T18:03:55.207Z,6.35
2022-09-26T18:06:24.885Z,6.70
2022-09-26T18:08:52.714Z,6.60
2022-09-26T18:11:20.063Z,6.90
2022-09-26T18:13:51.906Z,8.70
2022-09-26T18:16:19.627Z,8.95
2022-09-26T18:18:47.137Z,10.65
2022-09-26T18:21:17.578Z,11.70
2022-09-26T18:23:49.909Z,11.20
2022-09-26T18:26:26.422Z,10.88
2022-09-26T18:28:55.213Z,11.13
2022-09-26T18:31:26.826Z,10.68
2022-09-26T18:33:55.201Z,10.30
2022-09-26T18:36:24.935Z,10.93
2022-09-26T18:38:52.579Z,10.65
2022-09-26T18:41:22.847Z,10.50
2022-09-26T18:43:50.686Z,11.18
2022-09-26T18:46:18.400Z,11.45
2022-09-26T18:48:46.765Z,13.32
2022-09-26T18:51:14.386Z,11.52
2022-09-26T18:53:43.455Z,12.25
2022-09-26T18:56:11.827Z,11.38
2022-09-26T18:58:39.203Z,11.52
2022-09-26T19:01:11.433Z,12.65
2022-09-26T19:03:41.498Z,12.25
2022-09-26T19:06:10.576Z,12.77
2022-09-26T19:08:39.844Z,12.63
2022-09-26T19:11:13.769Z,13.20
2022-09-26T19:13:41.613Z,13.35
2022-09-26T19:16:09.816Z,14.00
2022-09-26T19:18:37.353Z,14.38
2022-09-26T19:21:08.278Z,14.60
2022-09-26T19:23:37.037Z,14.50
2022-09-26T19:26:06.068Z,13.15
2022-09-26T19:28:36.408Z,13.57
2022-09-26T19:31:04.584Z,14.77
2022-09-26T19:33:32.486Z,11.98
2022-09-26T19:35:59.869Z,7.03
2022-09-26T19:38:27.566Z,6.00
2022-09-26T19:40:55.131Z,7.25
2022-09-26T19:43:23.055Z,6.95
2022-09-26T19:45:54.435Z,6.40
2022-09-26T19:48:23.483Z,5.20
2022-09-26T19:50:51.896Z,5.72
2022-09-26T19:53:21.317Z,6.07
2022-09-26T19:55:49.058Z,5.57
2022-09-26T19:58:18.650Z,7.35
2022-09-26T20:00:50.439Z,7.00
2022-09-26T20:03:21.422Z,6.78
2022-09-26T20:05:50.426Z,6.18
2022-09-26T20:08:20.288Z,5.28
2022-09-26T20:10:48.187Z,4.97
2022-09-26T20:13:16.301Z,8.50
2022-09-26T20:15:44.809Z,9.40
2022-09-26T20:18:15.856Z,4.95
2022-09-26T20:20:52.280Z,5.63
2022-09-26T20:23:22.088Z,6.78
2022-09-26T20:25:51.862Z,6.05
2022-09-26T20:28:19.491Z,6.50
2022-09-26T20:30:46.931Z,4.90
2022-09-26T20:33:14.638Z,5.20
2022-09-26T20:35:46.728Z,6.75
2022-09-26T20:38:21.577Z,5.68
2022-09-26T20:40:49.220Z,7.32
2022-09-26T20:43:25.247Z,11.15
2022-09-26T20:45:53.004Z,12.75
2022-09-26T20:48:23.947Z,12.20
2022-09-26T20:50:52.776Z,13.60
2022-09-26T20:53:22.271Z,14.50
2022-09-26T20:55:51.042Z,14.90
2022-09-26T20:58:18.360Z,15.88
2022-09-26T21:00:46.193Z,16.70
2022-09-26T21:03:15.772Z,19.60
2022-09-26T21:05:43.327Z,19.75
2022-09-26T21:08:22.531Z,20.88
2022-09-26T21:10:49.780Z,21.15
2022-09-26T21:13:17.363Z,19.63
2022-09-26T21:15:44.688Z,20.33
2022-09-26T21:18:22.237Z,20.38
2022-09-26T21:20:51.254Z,18.67
2022-09-26T21:23:21.223Z,18.80
2022-09-26T21:25:48.714Z,18.25
2022-09-26T21:28:23.451Z,19.38
2022-09-26T21:30:51.125Z,17.38
2022-09-26T21:33:19.188Z,15.90
2022-09-26T21:35:46.989Z,16.10
2022-09-26T21:38:14.180Z,16.67
2022-09-26T21:40:44.525Z,14.98
2022-09-26T21:43:15.240Z,14.23
2022-09-26T21:45:44.805Z,13.90
2022-09-26T21:48:12.574Z,13.68
2022-09-26T21:50:45.557Z,11.68
2022-09-26T21:53:17.268Z,12.52
2022-09-26T21:55:51.676Z,11.90
2022-09-26T21:58:23.008Z,12.85
2022-09-26T22:00:50.170Z,12.73
2022-09-26T22:03:17.973Z,12.32
2022-09-26T22:05:45.637Z,12.52
2022-09-26T22:08:13.083Z,12.25
2022-09-26T22:10:40.344Z,11.98
2022-09-26T22:13:09.389Z,12.02
2022-09-26T22:15:36.662Z,12.30
2022-09-26T22:18:04.154Z,12.82
2022-09-26T22:20:31.695Z,11.60
2022-09-26T22:22:58.952Z,11.90
2022-09-26T22:25:26.401Z,12.27
2022-09-26T22:27:54.133Z,12.82
2022-09-26T22:30:23.211Z,12.43
2022-09-26T22:32:50.655Z,12.15
2022-09-26T22:38:03.202Z,10.65
2022-09-26T22:40:30.948Z,12.15
2022-09-26T22:42:58.173Z,10.98
2022-09-26T22:45:27.258Z,11.18
2022-09-26T22:47:54.829Z,11.88
2022-09-26T22:50:22.136Z,11.68
2022-09-26T22:52:49.310Z,11.18
2022-09-26T22:55:17.258Z,11.95
2022-09-26T22:57:44.650Z,11.75
2022-09-26T23:00:12.708Z,11.15
2022-09-26T23:02:41.877Z,12.77
2022-09-26T23:05:09.439Z,10.20
2022-09-26T23:07:36.773Z,10.10
2022-09-26T23:10:04.811Z,11.63
2022-09-26T23:12:32.165Z,10.38
2022-09-26T23:14:59.391Z,9.75
2022-09-26T23:17:26.855Z,10.23
2022-09-26T23:19:55.691Z,10.93
2022-09-26T23:22:22.900Z,10.35
2022-09-26T23:24:50.429Z,11.05
2022-09-26T23:27:17.647Z,11.05
2022-09-26T23:29:44.892Z,11.25
2022-09-26T23:32:12.529Z,11.32
2022-09-26T23:34:43.068Z,11.55
2022-09-26T23:37:11.698Z,10.38
2022-09-26T23:39:39.542Z,11.00
2022-09-26T23:42:06.902Z,10.68
2022-09-26T23:44:34.256Z,10.57
2022-09-26T23:47:02.502Z,10.15
2022-09-26T23:49:29.791Z,9.95
2022-09-26T23:51:56.983Z,9.45
2022-09-26T23:54:26.102Z,9.63
2022-09-26T23:56:53.287Z,9.52
2022-09-26T23:59:20.510Z,8.25
